sensor_id;sensor_type;location;lat;lon;timestamp;temperature;humidity
26051;DHT22;13825;53.496;10.020;2024-02-23T00:00:21;9.30;1.00
26051;DHT22;13825;53.496;10.020;2024-02-23T00:02:48;9.30;1.00
26051;DHT22;13825;53.496;10.020;2024-02-23T00:05:15;9.30;1.00
26051;DHT22;13825;53.496;10.020;2024-02-23T00:07:48;9.30;1.00
26051;DHT22;13825;53.496;10.020;2024-02-23T00:10:16;9.30;1.00
26051;DHT22;13825;53.496;10.020;2024-02-23T00:12:44;9.30;1.00
26051;DHT22;13825;53.496;10.020;2024-02-23T00:15:15;9.20;1.00
26051;DHT22;13825;53.496;10.020;2024-02-23T00:17:43;9.10;1.00
26051;DHT22;13825;53.496;10.020;2024-02-23T00:20:13;9.00;1.00
26051;DHT22;13825;53.496;10.020;2024-02-23T00:22:49;8.80;1.00
26051;DHT22;13825;53.496;10.020;2024-02-23T00:25:18;9.10;1.00
26051;DHT22;13825;53.496;10.020;2024-02-23T00:27:45;8.80;1.00
26051;DHT22;13825;53.496;10.020;2024-02-23T00:30:14;8.80;1.00
26051;DHT22;13825;53.496;10.020;2024-02-23T00:32:41;8.90;1.00
26051;DHT22;13825;53.496;10.020;2024-02-23T00:35:14;8.80;1.00
26051;DHT22;13825;53.496;10.020;2024-02-23T00:37:41;8.80;1.00
26051;DHT22;13825;53.496;10.020;2024-02-23T00:40:11;8.80;1.00
26051;DHT22;13825;53.496;10.020;2024-02-23T00:42:43;8.70;1.00
26051;DHT22;13825;53.496;10.020;2024-02-23T00:45:28;8.80;1.00
26051;DHT22;13825;53.496;10.020;2024-02-23T00:47:55;8.90;1.00
26051;DHT22;13825;53.496;10.020;2024-02-23T00:50:25;8.80;1.00
26051;DHT22;13825;53.496;10.020;2024-02-23T00:52:52;8.70;1.00
26051;DHT22;13825;53.496;10.020;2024-02-23T00:55:20;8.70;1.00
26051;DHT22;13825;53.496;10.020;2024-02-23T00:57:52;8.70;1.00
26051;DHT22;13825;53.496;10.020;2024-02-23T01:00:21;7.90;99.90
26051;DHT22;13825;53.496;10.020;2024-02-23T01:02:57;7.20;99.90
26051;DHT22;13825;53.496;10.020;2024-02-23T01:07:59;6.50;99.90
26051;DHT22;13825;53.496;10.020;2024-02-23T01:10:26;6.20;99.90
26051;DHT22;13825;53.496;10.020;2024-02-23T01:12:55;6.00;99.90
26051;DHT22;13825;53.496;10.020;2024-02-23T01:15:22;6.00;99.90
26051;DHT22;13825;53.496;10.020;2024-02-23T01:17:48;5.90;99.90
26051;DHT22;13825;53.496;10.020;2024-02-23T01:20:18;5.90;99.90
26051;DHT22;13825;53.496;10.020;2024-02-23T01:22:45;6.20;99.90
26051;DHT22;13825;53.496;10.020;2024-02-23T01:25:21;5.80;99.90
26051;DHT22;13825;53.496;10.020;2024-02-23T01:27:54;5.90;99.90
26051;DHT22;13825;53.496;10.020;2024-02-23T01:30:21;6.00;99.90
26051;DHT22;13825;53.496;10.020;2024-02-23T01:32:53;6.10;99.90
26051;DHT22;13825;53.496;10.020;2024-02-23T01:35:26;5.90;99.90
26051;DHT22;13825;53.496;10.020;2024-02-23T01:37:54;5.80;99.90
26051;DHT22;13825;53.496;10.020;2024-02-23T01:40:23;5.90;99.90
26051;DHT22;13825;53.496;10.020;2024-02-23T01:43:03;5.90;99.90
26051;DHT22;13825;53.496;10.020;2024-02-23T01:45:29;6.00;1.00
26051;DHT22;13825;53.496;10.020;2024-02-23T01:48:00;6.20;1.00
26051;DHT22;13825;53.496;10.020;2024-02-23T01:50:27;6.70;99.90
26051;DHT22;13825;53.496;10.020;2024-02-23T01:52:59;6.00;58.50
26051;DHT22;13825;53.496;10.020;2024-02-23T01:55:38;6.00;99.90
26051;DHT22;13825;53.496;10.020;2024-02-23T02:00:58;6.30;37.60
26051;DHT22;13825;53.496;10.020;2024-02-23T02:03:33;6.10;1.00
26051;DHT22;13825;53.496;10.020;2024-02-23T02:06:02;6.40;1.00
26051;DHT22;13825;53.496;10.020;2024-02-23T02:08:30;6.20;1.00
26051;DHT22;13825;53.496;10.020;2024-02-23T02:10:59;6.30;99.90
26051;DHT22;13825;53.496;10.020;2024-02-23T02:13:25;6.10;99.90
26051;DHT22;13825;53.496;10.020;2024-02-23T02:15:55;6.40;1.00
26051;DHT22;13825;53.496;10.020;2024-02-23T02:18:23;6.50;99.90
26051;DHT22;13825;53.496;10.020;2024-02-23T02:20:54;6.60;1.00
26051;DHT22;13825;53.496;10.020;2024-02-23T02:23:31;6.90;99.90
26051;DHT22;13825;53.496;10.020;2024-02-23T02:26:06;6.60;1.00
26051;DHT22;13825;53.496;10.020;2024-02-23T02:28:35;6.40;1.00
26051;DHT22;13825;53.496;10.020;2024-02-23T02:31:04;6.50;1.00
26051;DHT22;13825;53.496;10.020;2024-02-23T02:33:35;6.50;1.00
26051;DHT22;13825;53.496;10.020;2024-02-23T02:38:37;6.20;1.00
26051;DHT22;13825;53.496;10.020;2024-02-23T02:41:09;6.60;1.00
26051;DHT22;13825;53.496;10.020;2024-02-23T02:43:36;7.30;1.00
26051;DHT22;13825;53.496;10.020;2024-02-23T02:46:10;7.00;1.00
26051;DHT22;13825;53.496;10.020;2024-02-23T02:48:38;6.10;1.00
26051;DHT22;13825;53.496;10.020;2024-02-23T02:51:05;6.20;1.00
26051;DHT22;13825;53.496;10.020;2024-02-23T02:53:37;6.50;1.00
26051;DHT22;13825;53.496;10.020;2024-02-23T02:56:05;6.20;1.00
26051;DHT22;13825;53.496;10.020;2024-02-23T02:58:32;6.70;1.00
26051;DHT22;13825;53.496;10.020;2024-02-23T03:00:58;6.20;1.00
26051;DHT22;13825;53.496;10.020;2024-02-23T03:03:27;6.70;1.00
26051;DHT22;13825;53.496;10.020;2024-02-23T03:05:54;6.10;1.00
26051;DHT22;13825;53.496;10.020;2024-02-23T03:08:21;6.90;1.00
26051;DHT22;13825;53.496;10.020;2024-02-23T03:10:57;6.50;1.00
26051;DHT22;13825;53.496;10.020;2024-02-23T03:13:31;6.30;1.00
26051;DHT22;13825;53.496;10.020;2024-02-23T03:15:58;6.60;1.00
26051;DHT22;13825;53.496;10.020;2024-02-23T03:18:26;5.80;1.00
26051;DHT22;13825;53.496;10.020;2024-02-23T03:20:57;6.50;1.00
26051;DHT22;13825;53.496;10.020;2024-02-23T03:23:31;5.30;1.00
26051;DHT22;13825;53.496;10.020;2024-02-23T03:26:00;5.90;1.00
26051;DHT22;13825;53.496;10.020;2024-02-23T03:28:30;6.20;1.00
26051;DHT22;13825;53.496;10.020;2024-02-23T03:31:01;6.10;1.00
26051;DHT22;13825;53.496;10.020;2024-02-23T03:36:23;5.90;1.00
26051;DHT22;13825;53.496;10.020;2024-02-23T03:38:51;7.30;1.00
26051;DHT22;13825;53.496;10.020;2024-02-23T03:41:18;7.30;1.00
26051;DHT22;13825;53.496;10.020;2024-02-23T03:43:46;6.40;1.00
26051;DHT22;13825;53.496;10.020;2024-02-23T03:46:15;5.60;1.00
26051;DHT22;13825;53.496;10.020;2024-02-23T03:48:52;6.00;1.00
26051;DHT22;13825;53.496;10.020;2024-02-23T03:51:21;6.10;1.00
26051;DHT22;13825;53.496;10.020;2024-02-23T03:53:52;6.50;1.00
26051;DHT22;13825;53.496;10.020;2024-02-23T03:56:20;6.30;1.00
26051;DHT22;13825;53.496;10.020;2024-02-23T03:58:53;6.60;1.00
26051;DHT22;13825;53.496;10.020;2024-02-23T04:01:26;6.90;1.00
26051;DHT22;13825;53.496;10.020;2024-02-23T04:03:56;6.90;1.00
26051;DHT22;13825;53.496;10.020;2024-02-23T04:06:29;5.80;1.00
26051;DHT22;13825;53.496;10.020;2024-02-23T04:09:02;6.30;1.00
26051;DHT22;13825;53.496;10.020;2024-02-23T04:11:30;6.00;1.00
26051;DHT22;13825;53.496;10.020;2024-02-23T04:14:02;6.80;25.20
26051;DHT22;13825;53.496;10.020;2024-02-23T04:16:30;5.80;99.90
26051;DHT22;13825;53.496;10.020;2024-02-23T04:19:00;5.80;73.10
26051;DHT22;13825;53.496;10.020;2024-02-23T04:21:27;6.90;82.40
26051;DHT22;13825;53.496;10.020;2024-02-23T04:23:54;6.40;42.90
26051;DHT22;13825;53.496;10.020;2024-02-23T04:26:22;6.10;99.90
26051;DHT22;13825;53.496;10.020;2024-02-23T04:28:49;6.30;34.30
26051;DHT22;13825;53.496;10.020;2024-02-23T04:31:16;6.20;99.90
26051;DHT22;13825;53.496;10.020;2024-02-23T04:33:44;5.40;59.90
26051;DHT22;13825;53.496;10.020;2024-02-23T04:36:11;5.60;4.60
26051;DHT22;13825;53.496;10.020;2024-02-23T04:38:41;6.20;77.20
26051;DHT22;13825;53.496;10.020;2024-02-23T04:41:08;5.80;95.80
26051;DHT22;13825;53.496;10.020;2024-02-23T04:43:36;6.80;99.90
26051;DHT22;13825;53.496;10.020;2024-02-23T04:46:16;5.70;20.90
26051;DHT22;13825;53.496;10.020;2024-02-23T04:48:46;6.10;1.00
26051;DHT22;13825;53.496;10.020;2024-02-23T04:51:12;6.40;20.10
26051;DHT22;13825;53.496;10.020;2024-02-23T04:53:39;5.80;48.60
26051;DHT22;13825;53.496;10.020;2024-02-23T04:56:07;5.50;99.90
26051;DHT22;13825;53.496;10.020;2024-02-23T04:58:37;7.00;99.90
26051;DHT22;13825;53.496;10.020;2024-02-23T05:01:04;5.80;1.00
26051;DHT22;13825;53.496;10.020;2024-02-23T05:03:31;6.00;77.20
26051;DHT22;13825;53.496;10.020;2024-02-23T05:06:00;5.50;73.10
26051;DHT22;13825;53.496;10.020;2024-02-23T05:08:27;6.40;54.50
26051;DHT22;13825;53.496;10.020;2024-02-23T05:10:58;6.70;99.90
26051;DHT22;13825;53.496;10.020;2024-02-23T05:13:32;5.40;12.10
26051;DHT22;13825;53.496;10.020;2024-02-23T05:16:00;5.70;99.90
26051;DHT22;13825;53.496;10.020;2024-02-23T05:18:27;7.10;61.50
26051;DHT22;13825;53.496;10.020;2024-02-23T05:20:57;5.60;67.50
26051;DHT22;13825;53.496;10.020;2024-02-23T05:23:35;5.90;30.50
26051;DHT22;13825;53.496;10.020;2024-02-23T05:26:16;5.60;99.90
26051;DHT22;13825;53.496;10.020;2024-02-23T05:28:42;6.10;99.90
26051;DHT22;13825;53.496;10.020;2024-02-23T05:33:56;5.70;20.40
26051;DHT22;13825;53.496;10.020;2024-02-23T05:36:24;5.60;93.40
26051;DHT22;13825;53.496;10.020;2024-02-23T05:39:01;6.50;99.90
26051;DHT22;13825;53.496;10.020;2024-02-23T05:41:32;6.10;5.70
26051;DHT22;13825;53.496;10.020;2024-02-23T05:44:05;5.40;99.90
26051;DHT22;13825;53.496;10.020;2024-02-23T05:46:32;5.60;25.90
26051;DHT22;13825;53.496;10.020;2024-02-23T05:49:03;5.10;35.70
26051;DHT22;13825;53.496;10.020;2024-02-23T05:51:41;6.00;87.30
26051;DHT22;13825;53.496;10.020;2024-02-23T05:54:09;5.40;99.90
26051;DHT22;13825;53.496;10.020;2024-02-23T05:56:38;5.20;35.50
26051;DHT22;13825;53.496;10.020;2024-02-23T05:59:06;5.70;1.00
26051;DHT22;13825;53.496;10.020;2024-02-23T06:01:33;5.70;99.90
26051;DHT22;13825;53.496;10.020;2024-02-23T06:04:04;5.60;1.00
26051;DHT22;13825;53.496;10.020;2024-02-23T06:06:31;5.10;1.00
26051;DHT22;13825;53.496;10.020;2024-02-23T06:08:59;5.80;1.00
26051;DHT22;13825;53.496;10.020;2024-02-23T06:11:27;4.90;1.00
26051;DHT22;13825;53.496;10.020;2024-02-23T06:14:00;5.50;1.00
26051;DHT22;13825;53.496;10.020;2024-02-23T06:16:33;5.30;1.00
26051;DHT22;13825;53.496;10.020;2024-02-23T06:19:08;5.30;1.00
26051;DHT22;13825;53.496;10.020;2024-02-23T06:21:37;5.00;1.00
26051;DHT22;13825;53.496;10.020;2024-02-23T06:24:04;5.90;1.00
26051;DHT22;13825;53.496;10.020;2024-02-23T06:26:33;4.90;1.00
26051;DHT22;13825;53.496;10.020;2024-02-23T06:28:59;5.60;1.00
26051;DHT22;13825;53.496;10.020;2024-02-23T06:31:27;4.80;1.00
26051;DHT22;13825;53.496;10.020;2024-02-23T06:33:54;5.10;1.00
26051;DHT22;13825;53.496;10.020;2024-02-23T06:36:22;5.20;1.00
26051;DHT22;13825;53.496;10.020;2024-02-23T06:38:49;4.20;1.00
26051;DHT22;13825;53.496;10.020;2024-02-23T06:41:16;4.20;1.00
26051;DHT22;13825;53.496;10.020;2024-02-23T06:43:43;5.60;1.00
26051;DHT22;13825;53.496;10.020;2024-02-23T06:46:10;5.20;1.00
26051;DHT22;13825;53.496;10.020;2024-02-23T06:48:37;5.70;1.00
26051;DHT22;13825;53.496;10.020;2024-02-23T06:51:04;5.40;1.00
26051;DHT22;13825;53.496;10.020;2024-02-23T06:53:32;4.70;1.00
26051;DHT22;13825;53.496;10.020;2024-02-23T06:55:58;4.20;1.00
26051;DHT22;13825;53.496;10.020;2024-02-23T06:58:26;5.70;1.00
26051;DHT22;13825;53.496;10.020;2024-02-23T07:00:53;5.10;1.00
26051;DHT22;13825;53.496;10.020;2024-02-23T07:03:21;4.70;1.00
26051;DHT22;13825;53.496;10.020;2024-02-23T07:05:48;5.30;1.00
26051;DHT22;13825;53.496;10.020;2024-02-23T07:08:15;4.90;1.00
26051;DHT22;13825;53.496;10.020;2024-02-23T07:10:43;4.90;1.00
26051;DHT22;13825;53.496;10.020;2024-02-23T07:13:10;5.10;1.00
26051;DHT22;13825;53.496;10.020;2024-02-23T07:15:37;5.40;1.00
26051;DHT22;13825;53.496;10.020;2024-02-23T07:18:04;5.10;1.00
26051;DHT22;13825;53.496;10.020;2024-02-23T07:20:32;5.20;1.00
26051;DHT22;13825;53.496;10.020;2024-02-23T07:22:59;5.40;1.00
26051;DHT22;13825;53.496;10.020;2024-02-23T07:25:26;5.50;1.00
26051;DHT22;13825;53.496;10.020;2024-02-23T07:27:57;6.00;1.00
26051;DHT22;13825;53.496;10.020;2024-02-23T07:30:31;5.70;1.00
26051;DHT22;13825;53.496;10.020;2024-02-23T07:32:57;5.50;1.00
26051;DHT22;13825;53.496;10.020;2024-02-23T07:35:24;5.80;1.00
26051;DHT22;13825;53.496;10.020;2024-02-23T07:37:58;6.20;1.00
26051;DHT22;13825;53.496;10.020;2024-02-23T07:40:27;5.60;1.00
26051;DHT22;13825;53.496;10.020;2024-02-23T07:43:06;5.50;1.00
26051;DHT22;13825;53.496;10.020;2024-02-23T07:45:33;5.60;1.00
26051;DHT22;13825;53.496;10.020;2024-02-23T07:48:00;5.30;1.00
26051;DHT22;13825;53.496;10.020;2024-02-23T07:50:27;6.10;1.00
26051;DHT22;13825;53.496;10.020;2024-02-23T07:52:54;6.50;1.00
26051;DHT22;13825;53.496;10.020;2024-02-23T07:55:24;6.60;1.00
26051;DHT22;13825;53.496;10.020;2024-02-23T07:57:50;5.80;1.00
26051;DHT22;13825;53.496;10.020;2024-02-23T08:00:20;5.50;1.00
26051;DHT22;13825;53.496;10.020;2024-02-23T08:02:47;5.50;1.00
26051;DHT22;13825;53.496;10.020;2024-02-23T08:05:15;6.00;1.00
26051;DHT22;13825;53.496;10.020;2024-02-23T08:07:42;5.30;1.00
26051;DHT22;13825;53.496;10.020;2024-02-23T08:10:09;5.50;1.00
26051;DHT22;13825;53.496;10.020;2024-02-23T08:12:41;5.80;1.00
26051;DHT22;13825;53.496;10.020;2024-02-23T08:15:08;6.00;1.00
26051;DHT22;13825;53.496;10.020;2024-02-23T08:17:39;5.90;1.00
26051;DHT22;13825;53.496;10.020;2024-02-23T08:20:06;6.20;1.00
26051;DHT22;13825;53.496;10.020;2024-02-23T08:22:33;6.10;1.00
26051;DHT22;13825;53.496;10.020;2024-02-23T08:25:00;6.30;1.00
26051;DHT22;13825;53.496;10.020;2024-02-23T08:27:27;6.60;1.00
26051;DHT22;13825;53.496;10.020;2024-02-23T08:29:54;6.40;1.00
26051;DHT22;13825;53.496;10.020;2024-02-23T08:32:20;6.30;1.00
26051;DHT22;13825;53.496;10.020;2024-02-23T08:34:49;6.30;1.00
26051;DHT22;13825;53.496;10.020;2024-02-23T08:37:25;6.50;1.00
26051;DHT22;13825;53.496;10.020;2024-02-23T08:42:28;7.50;1.00
26051;DHT22;13825;53.496;10.020;2024-02-23T08:44:55;7.00;1.00
26051;DHT22;13825;53.496;10.020;2024-02-23T08:47:22;6.90;1.00
26051;DHT22;13825;53.496;10.020;2024-02-23T08:49:51;7.00;1.00
26051;DHT22;13825;53.496;10.020;2024-02-23T08:52:18;7.00;1.00
26051;DHT22;13825;53.496;10.020;2024-02-23T08:54:44;7.00;1.00
26051;DHT22;13825;53.496;10.020;2024-02-23T08:57:11;7.50;1.00
26051;DHT22;13825;53.496;10.020;2024-02-23T08:59:42;7.00;1.00
26051;DHT22;13825;53.496;10.020;2024-02-23T09:02:09;7.20;1.00
26051;DHT22;13825;53.496;10.020;2024-02-23T09:04:36;6.90;1.00
26051;DHT22;13825;53.496;10.020;2024-02-23T09:07:04;7.30;1.00
26051;DHT22;13825;53.496;10.020;2024-02-23T09:09:31;7.40;1.00
26051;DHT22;13825;53.496;10.020;2024-02-23T09:11:58;7.50;1.00
26051;DHT22;13825;53.496;10.020;2024-02-23T09:14:25;7.40;1.00
26051;DHT22;13825;53.496;10.020;2024-02-23T09:16:52;8.40;1.00
26051;DHT22;13825;53.496;10.020;2024-02-23T09:19:18;7.50;1.00
26051;DHT22;13825;53.496;10.020;2024-02-23T09:21:47;7.60;1.00
26051;DHT22;13825;53.496;10.020;2024-02-23T09:24:15;7.60;1.00
26051;DHT22;13825;53.496;10.020;2024-02-23T09:26:45;7.40;1.00
26051;DHT22;13825;53.496;10.020;2024-02-23T09:29:12;7.40;1.00
26051;DHT22;13825;53.496;10.020;2024-02-23T09:34:42;7.50;1.00
26051;DHT22;13825;53.496;10.020;2024-02-23T09:37:10;8.30;1.00
26051;DHT22;13825;53.496;10.020;2024-02-23T09:39:46;7.50;1.00
26051;DHT22;13825;53.496;10.020;2024-02-23T09:42:13;7.90;1.00
26051;DHT22;13825;53.496;10.020;2024-02-23T09:44:41;7.90;1.00
26051;DHT22;13825;53.496;10.020;2024-02-23T09:47:10;7.70;1.00
26051;DHT22;13825;53.496;10.020;2024-02-23T09:49:37;7.80;1.00
26051;DHT22;13825;53.496;10.020;2024-02-23T09:52:04;7.80;1.00
26051;DHT22;13825;53.496;10.020;2024-02-23T09:54:33;7.80;1.00
26051;DHT22;13825;53.496;10.020;2024-02-23T09:57:01;8.10;1.00
26051;DHT22;13825;53.496;10.020;2024-02-23T09:59:32;7.80;1.00
26051;DHT22;13825;53.496;10.020;2024-02-23T10:02:02;7.90;1.00
26051;DHT22;13825;53.496;10.020;2024-02-23T10:04:34;7.80;1.00
26051;DHT22;13825;53.496;10.020;2024-02-23T10:07:05;8.60;1.00
26051;DHT22;13825;53.496;10.020;2024-02-23T10:09:32;8.30;1.00
26051;DHT22;13825;53.496;10.020;2024-02-23T10:11:59;7.80;1.00
26051;DHT22;13825;53.496;10.020;2024-02-23T10:14:27;7.80;1.00
26051;DHT22;13825;53.496;10.020;2024-02-23T10:16:57;7.90;1.00
26051;DHT22;13825;53.496;10.020;2024-02-23T10:19:25;8.20;1.00
26051;DHT22;13825;53.496;10.020;2024-02-23T10:21:54;8.30;1.00
26051;DHT22;13825;53.496;10.020;2024-02-23T10:24:21;8.50;1.00
26051;DHT22;13825;53.496;10.020;2024-02-23T10:26:48;8.20;1.00
26051;DHT22;13825;53.496;10.020;2024-02-23T10:29:17;8.30;1.00
26051;DHT22;13825;53.496;10.020;2024-02-23T10:31:48;8.50;1.00
26051;DHT22;13825;53.496;10.020;2024-02-23T10:34:17;8.40;1.00
26051;DHT22;13825;53.496;10.020;2024-02-23T10:36:45;8.60;1.00
26051;DHT22;13825;53.496;10.020;2024-02-23T10:39:15;8.60;1.00
26051;DHT22;13825;53.496;10.020;2024-02-23T10:41:45;8.60;99.90
26051;DHT22;13825;53.496;10.020;2024-02-23T10:44:13;8.80;99.90
26051;DHT22;13825;53.496;10.020;2024-02-23T10:46:41;8.80;1.00
26051;DHT22;13825;53.496;10.020;2024-02-23T10:49:09;8.80;1.00
26051;DHT22;13825;53.496;10.020;2024-02-23T10:51:40;8.90;1.00
26051;DHT22;13825;53.496;10.020;2024-02-23T10:54:07;8.50;99.90
26051;DHT22;13825;53.496;10.020;2024-02-23T10:56:34;8.70;1.00
26051;DHT22;13825;53.496;10.020;2024-02-23T10:59:03;8.60;1.00
26051;DHT22;13825;53.496;10.020;2024-02-23T11:01:32;8.70;99.90
26051;DHT22;13825;53.496;10.020;2024-02-23T11:04:00;8.40;1.00
26051;DHT22;13825;53.496;10.020;2024-02-23T11:06:34;8.50;99.90
26051;DHT22;13825;53.496;10.020;2024-02-23T11:09:12;8.40;1.00
26051;DHT22;13825;53.496;10.020;2024-02-23T11:11:39;8.40;99.90
26051;DHT22;13825;53.496;10.020;2024-02-23T11:14:07;8.40;1.00
26051;DHT22;13825;53.496;10.020;2024-02-23T11:16:34;8.50;99.90
26051;DHT22;13825;53.496;10.020;2024-02-23T11:19:05;9.00;99.90
26051;DHT22;13825;53.496;10.020;2024-02-23T11:21:36;8.60;99.90
26051;DHT22;13825;53.496;10.020;2024-02-23T11:24:03;8.70;99.90
26051;DHT22;13825;53.496;10.020;2024-02-23T11:26:30;8.70;99.90
26051;DHT22;13825;53.496;10.020;2024-02-23T11:28:58;8.60;1.00
26051;DHT22;13825;53.496;10.020;2024-02-23T11:31:29;8.50;99.90
26051;DHT22;13825;53.496;10.020;2024-02-23T11:33:56;8.60;99.90
26051;DHT22;13825;53.496;10.020;2024-02-23T11:36:23;8.70;1.00
26051;DHT22;13825;53.496;10.020;2024-02-23T11:38:53;8.60;99.90
26051;DHT22;13825;53.496;10.020;2024-02-23T11:41:21;8.80;99.90
26051;DHT22;13825;53.496;10.020;2024-02-23T11:43:49;8.70;1.00
26051;DHT22;13825;53.496;10.020;2024-02-23T11:46:20;8.70;1.00
26051;DHT22;13825;53.496;10.020;2024-02-23T11:48:48;8.80;1.00
26051;DHT22;13825;53.496;10.020;2024-02-23T11:51:18;8.60;99.90
26051;DHT22;13825;53.496;10.020;2024-02-23T11:53:45;8.80;1.00
26051;DHT22;13825;53.496;10.020;2024-02-23T11:56:14;8.70;1.00
26051;DHT22;13825;53.496;10.020;2024-02-23T11:58:41;8.60;99.90
26051;DHT22;13825;53.496;10.020;2024-02-23T12:01:08;8.60;1.00
26051;DHT22;13825;53.496;10.020;2024-02-23T12:03:35;8.60;1.00
26051;DHT22;13825;53.496;10.020;2024-02-23T12:06:03;8.50;99.90
26051;DHT22;13825;53.496;10.020;2024-02-23T12:08:30;9.50;1.00
26051;DHT22;13825;53.496;10.020;2024-02-23T12:11:03;8.40;99.90
26051;DHT22;13825;53.496;10.020;2024-02-23T12:13:34;8.30;99.90
26051;DHT22;13825;53.496;10.020;2024-02-23T12:16:01;8.40;99.90
26051;DHT22;13825;53.496;10.020;2024-02-23T12:18:28;8.30;99.90
26051;DHT22;13825;53.496;10.020;2024-02-23T12:20:58;8.70;99.90
26051;DHT22;13825;53.496;10.020;2024-02-23T12:23:25;8.80;99.90
26051;DHT22;13825;53.496;10.020;2024-02-23T12:25:52;8.50;99.90
26051;DHT22;13825;53.496;10.020;2024-02-23T12:28:22;8.50;99.90
26051;DHT22;13825;53.496;10.020;2024-02-23T12:30:58;8.50;99.90
26051;DHT22;13825;53.496;10.020;2024-02-23T12:33:28;8.50;99.90
26051;DHT22;13825;53.496;10.020;2024-02-23T12:35:56;8.40;99.90
26051;DHT22;13825;53.496;10.020;2024-02-23T12:38:22;8.80;1.00
26051;DHT22;13825;53.496;10.020;2024-02-23T12:40:49;8.50;1.00
26051;DHT22;13825;53.496;10.020;2024-02-23T12:43:18;8.60;99.90
26051;DHT22;13825;53.496;10.020;2024-02-23T12:45:46;8.60;99.90
26051;DHT22;13825;53.496;10.020;2024-02-23T12:48:16;8.70;99.90
26051;DHT22;13825;53.496;10.020;2024-02-23T12:50:42;9.10;99.90
26051;DHT22;13825;53.496;10.020;2024-02-23T12:53:10;8.90;99.90
26051;DHT22;13825;53.496;10.020;2024-02-23T12:55:38;8.80;99.90
26051;DHT22;13825;53.496;10.020;2024-02-23T12:58:06;8.80;99.90
26051;DHT22;13825;53.496;10.020;2024-02-23T13:00:33;8.70;1.00
26051;DHT22;13825;53.496;10.020;2024-02-23T13:02:59;8.70;99.90
26051;DHT22;13825;53.496;10.020;2024-02-23T13:05:28;8.70;1.00
26051;DHT22;13825;53.496;10.020;2024-02-23T13:07:54;8.70;99.90
26051;DHT22;13825;53.496;10.020;2024-02-23T13:10:24;8.90;1.00
26051;DHT22;13825;53.496;10.020;2024-02-23T13:12:51;9.80;1.00
26051;DHT22;13825;53.496;10.020;2024-02-23T13:15:18;9.10;1.00
26051;DHT22;13825;53.496;10.020;2024-02-23T13:17:47;9.00;99.90
26051;DHT22;13825;53.496;10.020;2024-02-23T13:20:14;8.80;99.90
26051;DHT22;13825;53.496;10.020;2024-02-23T13:22:42;8.80;99.90
26051;DHT22;13825;53.496;10.020;2024-02-23T13:25:09;9.00;99.90
26051;DHT22;13825;53.496;10.020;2024-02-23T13:27:36;8.80;1.00
26051;DHT22;13825;53.496;10.020;2024-02-23T13:30:06;8.80;1.00
26051;DHT22;13825;53.496;10.020;2024-02-23T13:32:32;8.70;99.90
26051;DHT22;13825;53.496;10.020;2024-02-23T13:34:59;8.60;99.90
26051;DHT22;13825;53.496;10.020;2024-02-23T13:37:29;8.70;99.90
26051;DHT22;13825;53.496;10.020;2024-02-23T13:40:02;8.60;1.00
26051;DHT22;13825;53.496;10.020;2024-02-23T13:42:31;8.80;99.90
26051;DHT22;13825;53.496;10.020;2024-02-23T13:44:57;8.50;99.90
26051;DHT22;13825;53.496;10.020;2024-02-23T13:47:27;8.20;1.00
26051;DHT22;13825;53.496;10.020;2024-02-23T13:49:54;8.30;99.90
26051;DHT22;13825;53.496;10.020;2024-02-23T13:52:21;8.30;1.00
26051;DHT22;13825;53.496;10.020;2024-02-23T13:54:48;8.30;1.00
26051;DHT22;13825;53.496;10.020;2024-02-23T13:57:16;8.30;99.90
26051;DHT22;13825;53.496;10.020;2024-02-23T13:59:43;8.40;99.90
26051;DHT22;13825;53.496;10.020;2024-02-23T14:02:09;8.40;99.90
26051;DHT22;13825;53.496;10.020;2024-02-23T14:04:37;8.40;1.00
26051;DHT22;13825;53.496;10.020;2024-02-23T14:07:04;8.50;99.90
26051;DHT22;13825;53.496;10.020;2024-02-23T14:09:30;8.30;99.90
26051;DHT22;13825;53.496;10.020;2024-02-23T14:11:57;8.10;99.90
26051;DHT22;13825;53.496;10.020;2024-02-23T14:14:25;8.40;99.90
26051;DHT22;13825;53.496;10.020;2024-02-23T14:16:52;8.40;99.90
26051;DHT22;13825;53.496;10.020;2024-02-23T14:19:19;9.00;99.90
26051;DHT22;13825;53.496;10.020;2024-02-23T14:21:46;8.60;99.90
26051;DHT22;13825;53.496;10.020;2024-02-23T14:24:14;8.80;1.00
26051;DHT22;13825;53.496;10.020;2024-02-23T14:26:40;8.90;99.90
26051;DHT22;13825;53.496;10.020;2024-02-23T14:29:07;9.00;99.90
26051;DHT22;13825;53.496;10.020;2024-02-23T14:31:35;9.40;99.90
26051;DHT22;13825;53.496;10.020;2024-02-23T14:34:02;10.00;99.90
26051;DHT22;13825;53.496;10.020;2024-02-23T14:36:29;10.40;99.90
26051;DHT22;13825;53.496;10.020;2024-02-23T14:38:59;10.80;99.90
26051;DHT22;13825;53.496;10.020;2024-02-23T14:41:26;11.30;99.90
26051;DHT22;13825;53.496;10.020;2024-02-23T14:43:54;10.80;99.90
26051;DHT22;13825;53.496;10.020;2024-02-23T14:46:24;10.90;99.90
26051;DHT22;13825;53.496;10.020;2024-02-23T14:48:52;10.40;99.90
26051;DHT22;13825;53.496;10.020;2024-02-23T14:51:19;10.30;99.90
26051;DHT22;13825;53.496;10.020;2024-02-23T14:53:46;10.10;99.90
26051;DHT22;13825;53.496;10.020;2024-02-23T14:56:13;9.80;99.90
26051;DHT22;13825;53.496;10.020;2024-02-23T14:58:40;9.60;99.90
26051;DHT22;13825;53.496;10.020;2024-02-23T15:01:06;9.90;99.90
26051;DHT22;13825;53.496;10.020;2024-02-23T15:03:34;9.50;99.90
26051;DHT22;13825;53.496;10.020;2024-02-23T15:06:02;9.50;99.90
26051;DHT22;13825;53.496;10.020;2024-02-23T15:08:29;9.40;99.90
26051;DHT22;13825;53.496;10.020;2024-02-23T15:10:56;9.40;99.90
26051;DHT22;13825;53.496;10.020;2024-02-23T15:13:23;9.30;99.90
26051;DHT22;13825;53.496;10.020;2024-02-23T15:15:49;9.80;99.90
26051;DHT22;13825;53.496;10.020;2024-02-23T15:18:17;9.20;99.90
26051;DHT22;13825;53.496;10.020;2024-02-23T15:20:47;8.90;99.90
26051;DHT22;13825;53.496;10.020;2024-02-23T15:23:15;8.90;99.90
26051;DHT22;13825;53.496;10.020;2024-02-23T15:25:42;9.10;99.90
26051;DHT22;13825;53.496;10.020;2024-02-23T15:28:09;9.30;99.90
26051;DHT22;13825;53.496;10.020;2024-02-23T15:30:37;9.00;1.00
26051;DHT22;13825;53.496;10.020;2024-02-23T15:33:03;9.80;99.90
26051;DHT22;13825;53.496;10.020;2024-02-23T15:35:30;9.10;99.90
26051;DHT22;13825;53.496;10.020;2024-02-23T15:37:57;9.00;99.90
26051;DHT22;13825;53.496;10.020;2024-02-23T15:40:25;9.10;99.90
26051;DHT22;13825;53.496;10.020;2024-02-23T15:42:53;9.10;99.90
26051;DHT22;13825;53.496;10.020;2024-02-23T15:45:19;9.10;99.90
26051;DHT22;13825;53.496;10.020;2024-02-23T15:47:46;8.90;99.90
26051;DHT22;13825;53.496;10.020;2024-02-23T15:50:13;8.80;99.90
26051;DHT22;13825;53.496;10.020;2024-02-23T15:52:40;8.70;99.90
26051;DHT22;13825;53.496;10.020;2024-02-23T15:55:07;8.60;99.90
26051;DHT22;13825;53.496;10.020;2024-02-23T15:57:38;8.60;99.90
26051;DHT22;13825;53.496;10.020;2024-02-23T16:00:05;8.60;99.90
26051;DHT22;13825;53.496;10.020;2024-02-23T16:02:37;9.10;99.90
26051;DHT22;13825;53.496;10.020;2024-02-23T16:05:05;8.50;99.90
26051;DHT22;13825;53.496;10.020;2024-02-23T16:07:32;8.40;99.90